Time;durP1;ratioP1;P1;durP2;ratioP2;P2;SDS_P1;SDS_P2;PMS_P1;PMS_P2;Temp;Humidity;BMP_temperature;BMP_pressure;BME280_temperature;BME280_humidity;BME280_pressure;Samples;Min_cycle;Max_cycle;Signal;HPM_P1;HPM_P2
2023/03/22 00:01:02;;;;;;;5.93;4.33;;;9.50;99.90;;;;;;474547;250;27860;-78
2023/03/22 00:03:04;;;;;;;7.20;3.93;;;9.50;99.90;;;;;;474463;250;28713;-78
2023/03/22 00:05:05;;;;;;;5.40;4.30;;;9.50;99.90;;;;;;474552;250;28231;-78
2023/03/22 00:07:06;;;;;;;7.33;4.73;;;9.50;99.90;;;;;;474566;250;28459;-78
2023/03/22 00:09:07;;;;;;;4.60;4.20;;;9.50;99.90;;;;;;474498;250;28719;-77
2023/03/22 00:11:09;;;;;;;5.53;4.77;;;9.50;99.90;;;;;;474509;250;28600;-78
2023/03/22 00:13:10;;;;;;;8.23;4.57;;;9.50;99.90;;;;;;474552;250;28047;-79
2023/03/22 00:15:11;;;;;;;6.20;4.67;;;9.50;99.90;;;;;;474564;250;27741;-78
2023/03/22 00:17:12;;;;;;;5.40;4.90;;;9.50;99.90;;;;;;474560;250;28108;-78
2023/03/22 00:19:14;;;;;;;9.23;5.10;;;9.50;99.90;;;;;;474541;250;28171;-78
2023/03/22 00:21:15;;;;;;;6.87;4.83;;;9.50;99.90;;;;;;474568;250;27498;-78
2023/03/22 00:23:16;;;;;;;6.93;5.30;;;9.50;99.90;;;;;;474554;250;28044;-78
2023/03/22 00:25:17;;;;;;;6.40;4.63;;;9.60;99.90;;;;;;474565;250;27732;-78
2023/03/22 00:27:19;;;;;;;6.73;4.83;;;9.50;99.90;;;;;;474556;250;27903;-79
2023/03/22 00:29:21;;;;;;;5.13;4.07;;;9.50;99.90;;;;;;474546;250;28015;-78
2023/03/22 00:31:21;;;;;;;6.20;5.07;;;9.50;99.90;;;;;;474527;250;28095;-78
2023/03/22 00:33:22;;;;;;;4.87;4.37;;;9.60;99.90;;;;;;474558;250;28031;-78
2023/03/22 00:35:24;;;;;;;5.70;4.73;;;9.60;99.90;;;;;;474555;250;28041;-77
2023/03/22 00:37:26;;;;;;;6.77;4.20;;;9.50;99.90;;;;;;474563;250;27955;-78
2023/03/22 00:39:26;;;;;;;12.67;5.73;;;9.50;99.90;;;;;;474451;250;28006;-78
2023/03/22 00:41:27;;;;;;;10.60;5.57;;;9.50;99.90;;;;;;474554;250;28539;-78
2023/03/22 00:43:29;;;;;;;6.03;4.73;;;9.50;99.90;;;;;;474534;250;28287;-78
2023/03/22 00:45:30;;;;;;;6.60;5.10;;;9.50;99.90;;;;;;474560;250;28633;-78
2023/03/22 00:47:31;;;;;;;6.90;5.10;;;9.50;99.90;;;;;;474557;250;28592;-78
2023/03/22 00:49:34;;;;;;;5.50;4.53;;;9.50;99.90;;;;;;474553;250;28379;-78
2023/03/22 00:51:34;;;;;;;5.10;4.60;;;9.50;99.90;;;;;;474516;248;28054;-78
2023/03/22 00:53:35;;;;;;;5.87;5.20;;;9.50;99.90;;;;;;474520;250;28251;-78
2023/03/22 00:55:36;;;;;;;6.30;4.90;;;9.50;99.90;;;;;;474533;250;28171;-78
2023/03/22 00:57:37;;;;;;;8.53;4.60;;;9.50;99.90;;;;;;474577;250;27791;-78
2023/03/22 00:59:39;;;;;;;4.87;4.07;;;9.50;99.90;;;;;;474557;250;28164;-78
2023/03/22 01:01:40;;;;;;;6.47;4.37;;;9.40;99.90;;;;;;474541;250;28024;-78
2023/03/22 01:03:41;;;;;;;4.80;4.30;;;9.40;99.90;;;;;;474534;250;27897;-78
2023/03/22 01:05:42;;;;;;;4.73;3.83;;;9.40;99.90;;;;;;474527;250;27938;-78
2023/03/22 01:07:44;;;;;;;5.27;4.30;;;9.40;99.90;;;;;;474524;249;28014;-78
2023/03/22 01:09:45;;;;;;;6.30;4.57;;;9.30;99.90;;;;;;474529;250;28011;-78
2023/03/22 01:11:46;;;;;;;4.80;4.30;;;9.30;99.90;;;;;;474559;250;28041;-78
2023/03/22 01:13:47;;;;;;;6.03;4.70;;;9.30;99.90;;;;;;474458;250;27897;-78
2023/03/22 01:15:49;;;;;;;6.50;4.50;;;9.30;99.90;;;;;;474523;250;28090;-78
2023/03/22 01:17:50;;;;;;;4.73;4.10;;;9.30;99.90;;;;;;474529;250;28176;-78
2023/03/22 01:19:51;;;;;;;6.43;4.50;;;9.30;99.90;;;;;;474524;250;28496;-79
2023/03/22 01:21:52;;;;;;;6.80;4.67;;;9.30;99.90;;;;;;474553;250;28456;-79
2023/03/22 01:23:54;;;;;;;9.80;4.87;;;9.30;99.90;;;;;;474363;250;28454;-78
2023/03/22 01:25:55;;;;;;;7.50;4.43;;;9.30;99.90;;;;;;474552;250;28503;-78
2023/03/22 01:27:56;;;;;;;4.80;4.30;;;9.40;99.90;;;;;;474554;250;28445;-78
2023/03/22 01:29:57;;;;;;;5.80;4.40;;;9.40;99.90;;;;;;474567;250;27552;-78
2023/03/22 01:31:59;;;;;;;5.03;3.80;;;9.40;99.90;;;;;;474157;250;28130;-79
2023/03/22 01:34:00;;;;;;;5.50;4.03;;;9.50;99.90;;;;;;474529;250;28042;-77
2023/03/22 01:36:01;;;;;;;6.40;3.63;;;9.50;99.90;;;;;;474556;250;27548;-78
2023/03/22 01:38:02;;;;;;;6.80;4.00;;;9.50;99.90;;;;;;474546;250;27883;-78
2023/03/22 01:40:04;;;;;;;6.43;4.10;;;9.50;99.90;;;;;;474542;250;27779;-79
2023/03/22 01:42:05;;;;;;;5.33;4.00;;;9.50;99.90;;;;;;474563;250;28257;-78
2023/03/22 01:44:06;;;;;;;6.83;4.00;;;9.50;99.90;;;;;;474417;250;28149;-77
2023/03/22 01:46:07;;;;;;;4.87;3.80;;;9.50;99.90;;;;;;474544;250;28032;-78
2023/03/22 01:48:09;;;;;;;6.27;3.70;;;9.50;99.90;;;;;;474551;250;28127;-78
2023/03/22 01:50:10;;;;;;;6.23;4.00;;;9.50;99.90;;;;;;474476;250;28044;-78
2023/03/22 01:52:11;;;;;;;4.70;4.20;;;9.50;99.90;;;;;;474291;250;28112;-79
2023/03/22 01:54:12;;;;;;;6.67;4.20;;;9.50;99.90;;;;;;474328;250;28094;-78
2023/03/22 01:56:14;;;;;;;4.33;3.70;;;9.60;99.90;;;;;;474348;250;28004;-78
2023/03/22 01:58:16;;;;;;;7.40;4.03;;;9.60;99.90;;;;;;474324;250;28418;-78
2023/03/22 02:00:17;;;;;;;5.77;3.70;;;9.60;99.90;;;;;;474481;250;28467;-77
2023/03/22 02:02:21;;;;;;;4.00;3.27;;;9.60;99.90;;;;;;474529;250;29268;-78
2023/03/22 02:04:24;;;;;;;4.00;3.60;;;9.60;99.90;;;;;;474504;250;28136;-73
2023/03/22 02:06:22;;;;;;;4.83;3.70;;;9.60;99.90;;;;;;474487;250;27744;-77
2023/03/22 02:08:24;;;;;;;4.57;4.10;;;9.60;99.90;;;;;;474365;250;28067;-78
2023/03/22 02:10:25;;;;;;;4.77;3.90;;;9.60;99.90;;;;;;474535;250;28206;-77
2023/03/22 02:12:26;;;;;;;5.60;3.60;;;9.60;99.90;;;;;;474542;250;27688;-78
2023/03/22 02:14:27;;;;;;;5.00;3.63;;;9.50;99.90;;;;;;474555;250;28179;-78
2023/03/22 02:16:29;;;;;;;4.53;3.90;;;9.50;99.90;;;;;;474488;250;28118;-78
2023/03/22 02:18:30;;;;;;;5.80;3.60;;;9.50;99.90;;;;;;474552;250;28075;-78
2023/03/22 02:20:31;;;;;;;4.20;3.33;;;9.50;99.90;;;;;;474527;250;27998;-78
2023/03/22 02:22:37;;;;;;;5.10;3.93;;;9.50;99.90;;;;;;474561;250;28470;-78
2023/03/22 02:24:34;;;;;;;7.23;4.30;;;9.50;99.90;;;;;;474326;250;28325;-78
2023/03/22 02:26:38;;;;;;;3.63;3.07;;;9.50;99.90;;;;;;474636;250;28483;-78
2023/03/22 02:28:36;;;;;;;5.80;3.67;;;9.50;99.90;;;;;;474437;250;28432;-78
2023/03/22 02:30:37;;;;;;;6.47;3.90;;;9.50;99.90;;;;;;474584;248;28578;-78
2023/03/22 02:32:39;;;;;;;3.23;2.93;;;9.50;99.90;;;;;;474546;250;28002;-78
2023/03/22 02:34:40;;;;;;;4.03;3.30;;;9.40;99.90;;;;;;474450;250;28168;-78
2023/03/22 02:36:41;;;;;;;5.87;3.27;;;9.40;99.90;;;;;;474520;250;27919;-78
2023/03/22 02:38:44;;;;;;;3.87;3.10;;;9.40;99.90;;;;;;474550;250;28046;-78
2023/03/22 02:40:44;;;;;;;4.93;3.50;;;9.30;99.90;;;;;;474500;250;28161;-78
2023/03/22 02:42:45;;;;;;;6.20;3.80;;;9.30;99.90;;;;;;474487;250;27880;-78
2023/03/22 02:44:46;;;;;;;5.50;3.50;;;9.20;99.90;;;;;;474534;250;27996;-78
2023/03/22 02:46:47;;;;;;;5.43;3.60;;;9.20;99.90;;;;;;474533;250;28100;-77
2023/03/22 02:48:49;;;;;;;7.40;4.20;;;9.20;99.90;;;;;;474536;250;28024;-79
2023/03/22 02:50:50;;;;;;;6.10;3.47;;;9.10;99.90;;;;;;474525;250;27991;-79
2023/03/22 02:52:51;;;;;;;4.67;3.27;;;9.10;99.90;;;;;;474530;250;28246;-78
2023/03/22 02:54:52;;;;;;;3.93;3.53;;;9.10;99.90;;;;;;474544;250;27900;-78
2023/03/22 02:56:54;;;;;;;6.20;3.17;;;9.10;99.90;;;;;;474538;250;28039;-78
2023/03/22 02:58:56;;;;;;;4.73;3.10;;;9.10;99.90;;;;;;474515;250;28038;-78
2023/03/22 03:00:56;;;;;;;6.33;3.70;;;9.10;99.90;;;;;;474533;250;28626;-78
2023/03/22 03:02:58;;;;;;;6.77;3.80;;;9.20;99.90;;;;;;474521;250;28484;-78
2023/03/22 03:04:59;;;;;;;4.30;3.57;;;9.20;99.90;;;;;;474511;250;28418;-77
2023/03/22 03:07:00;;;;;;;5.40;3.57;;;9.20;99.90;;;;;;474535;250;28524;-78
2023/03/22 03:09:03;;;;;;;5.03;3.33;;;9.20;99.90;;;;;;474557;250;29109;-78
2023/03/22 03:11:02;;;;;;;3.70;3.40;;;9.10;99.90;;;;;;474505;250;28336;-78
2023/03/22 03:13:04;;;;;;;4.67;3.40;;;9.10;99.90;;;;;;474480;250;28116;-78
2023/03/22 03:15:06;;;;;;;4.23;3.60;;;9.10;99.90;;;;;;474311;250;27769;-78
2023/03/22 03:17:06;;;;;;;4.53;3.70;;;9.10;99.90;;;;;;474539;250;28048;-78
2023/03/22 03:19:07;;;;;;;7.50;3.60;;;9.10;99.90;;;;;;474542;250;28104;-78
2023/03/22 03:21:09;;;;;;;5.60;3.90;;;9.10;99.90;;;;;;474529;250;28126;-78
2023/03/22 03:23:12;;;;;;;4.40;3.43;;;9.10;99.90;;;;;;474462;248;27656;-78
2023/03/22 03:25:11;;;;;;;5.70;3.90;;;9.10;99.90;;;;;;474491;250;27887;-79
2023/03/22 03:27:12;;;;;;;5.17;4.10;;;9.10;99.90;;;;;;474557;250;28282;-78
2023/03/22 03:29:14;;;;;;;7.30;4.83;;;9.10;99.90;;;;;;474518;250;27985;-77
2023/03/22 03:31:15;;;;;;;8.50;4.10;;;9.10;99.90;;;;;;474408;250;27652;-78
2023/03/22 03:33:16;;;;;;;4.47;4.07;;;9.10;99.90;;;;;;474415;250;27711;-78
2023/03/22 03:35:21;;;;;;;9.73;4.30;;;9.10;99.90;;;;;;474408;248;27947;-79
2023/03/22 03:37:19;;;;;;;6.60;4.30;;;9.10;99.90;;;;;;474310;250;28048;-78
2023/03/22 03:39:20;;;;;;;6.57;4.50;;;9.10;99.90;;;;;;474507;250;28890;-78
2023/03/22 03:41:21;;;;;;;7.50;3.93;;;9.10;99.90;;;;;;474532;250;28219;-78
2023/03/22 03:43:24;;;;;;;6.13;4.53;;;9.10;99.90;;;;;;474558;250;28359;-78
2023/03/22 03:45:24;;;;;;;4.53;3.70;;;9.00;99.90;;;;;;474521;250;28446;-78
2023/03/22 03:47:25;;;;;;;9.00;4.27;;;9.00;99.90;;;;;;474516;250;28556;-78
2023/03/22 03:49:26;;;;;;;5.97;4.10;;;9.00;99.90;;;;;;474574;250;28423;-78
2023/03/22 03:51:27;;;;;;;6.70;4.23;;;9.00;99.90;;;;;;474558;250;27626;-78
2023/03/22 03:53:29;;;;;;;7.13;3.50;;;9.00;99.90;;;;;;474569;250;27873;-78
2023/03/22 03:55:30;;;;;;;4.17;3.77;;;8.90;99.90;;;;;;474545;250;27997;-78
2023/03/22 03:57:31;;;;;;;7.83;3.97;;;8.90;99.90;;;;;;474568;250;27681;-78
2023/03/22 03:59:32;;;;;;;7.10;4.43;;;8.70;99.90;;;;;;474538;250;28032;-78
2023/03/22 04:01:34;;;;;;;6.60;3.83;;;8.70;99.90;;;;;;474583;250;28205;-78
2023/03/22 04:03:35;;;;;;;5.10;4.00;;;8.70;99.90;;;;;;474572;250;28102;-78
2023/03/22 04:05:36;;;;;;;4.93;4.00;;;8.60;99.90;;;;;;474559;250;28400;-79
2023/03/22 04:07:37;;;;;;;4.93;4.43;;;8.60;99.90;;;;;;474541;250;28133;-78
2023/03/22 04:09:39;;;;;;;4.97;3.90;;;8.50;99.90;;;;;;474492;250;28015;-78
2023/03/22 04:11:40;;;;;;;6.27;4.30;;;8.50;99.90;;;;;;474502;249;28096;-78
2023/03/22 04:13:41;;;;;;;7.73;4.43;;;8.40;99.90;;;;;;474469;250;28153;-78
2023/03/22 04:15:42;;;;;;;7.37;4.00;;;8.40;99.90;;;;;;474422;250;28086;-78
2023/03/22 04:17:45;;;;;;;4.33;3.63;;;8.30;99.90;;;;;;474424;250;27779;-78
2023/03/22 04:19:45;;;;;;;5.73;4.20;;;8.30;99.90;;;;;;474388;248;28661;-78
2023/03/22 04:21:46;;;;;;;4.80;4.30;;;8.30;99.90;;;;;;474512;248;28438;-78
2023/03/22 04:23:47;;;;;;;5.10;3.53;;;8.30;99.90;;;;;;474505;250;28638;-78
2023/03/22 04:25:49;;;;;;;6.80;4.50;;;8.30;99.90;;;;;;474511;249;28322;-78
2023/03/22 04:27:50;;;;;;;5.07;4.00;;;8.20;99.90;;;;;;474443;250;28797;-78
2023/03/22 04:29:53;;;;;;;7.50;4.20;;;8.20;99.90;;;;;;474511;250;28021;-78
2023/03/22 04:31:53;;;;;;;7.57;4.90;;;8.20;99.90;;;;;;474490;250;28011;-77
2023/03/22 04:34:04;;;;;;;4.57;4.17;;;8.30;99.90;;;;;;474560;250;28119;-77
2023/03/22 04:35:59;;;;;;;7.47;4.40;;;8.30;99.90;;;;;;474378;250;28133;-74
2023/03/22 04:38:00;;;;;;;7.40;4.23;;;8.40;99.90;;;;;;474507;250;28168;-77
2023/03/22 04:40:01;;;;;;;6.90;4.40;;;8.40;99.90;;;;;;474487;250;28950;-78
2023/03/22 04:42:02;;;;;;;7.10;5.03;;;8.50;99.90;;;;;;474503;248;28590;-78
2023/03/22 04:44:03;;;;;;;5.30;4.10;;;8.60;99.90;;;;;;474556;250;28088;-78
2023/03/22 04:46:04;;;;;;;6.73;3.60;;;8.60;99.90;;;;;;474539;250;28373;-78
2023/03/22 04:48:06;;;;;;;8.97;5.00;;;8.70;99.90;;;;;;474525;250;28667;-78
2023/03/22 04:50:07;;;;;;;6.90;4.40;;;8.70;99.90;;;;;;474529;250;28516;-78
2023/03/22 04:52:08;;;;;;;7.70;4.70;;;8.70;99.90;;;;;;474521;250;28115;-78
2023/03/22 04:54:09;;;;;;;5.67;4.27;;;8.70;99.90;;;;;;474539;250;27996;-78
2023/03/22 04:56:11;;;;;;;8.53;4.87;;;8.80;99.90;;;;;;474553;250;28026;-78
2023/03/22 04:58:12;;;;;;;6.47;4.03;;;8.70;99.90;;;;;;474516;250;28039;-78
2023/03/22 05:00:14;;;;;;;5.30;4.30;;;8.70;99.90;;;;;;474534;250;27967;-78
2023/03/22 05:02:15;;;;;;;4.87;4.17;;;8.70;99.90;;;;;;474420;250;28030;-78
2023/03/22 05:04:16;;;;;;;4.97;4.10;;;8.70;99.90;;;;;;474477;250;28036;-78
2023/03/22 05:06:17;;;;;;;5.20;3.90;;;8.80;99.90;;;;;;474553;250;28018;-78
2023/03/22 05:08:18;;;;;;;4.27;3.37;;;8.70;99.90;;;;;;474360;250;28110;-79
2023/03/22 05:10:19;;;;;;;11.00;4.87;;;8.80;99.90;;;;;;474539;250;27879;-81
2023/03/22 05:12:20;;;;;;;5.40;4.23;;;8.80;99.90;;;;;;474538;250;28110;-78
2023/03/22 05:14:22;;;;;;;5.13;3.97;;;8.80;99.90;;;;;;474548;250;28007;-78
2023/03/22 05:16:23;;;;;;;4.90;4.23;;;8.80;99.90;;;;;;474557;250;28028;-78
2023/03/22 05:18:25;;;;;;;6.90;4.97;;;8.80;99.90;;;;;;474519;250;29313;-78
2023/03/22 05:20:25;;;;;;;7.17;4.17;;;8.90;99.90;;;;;;474514;250;28478;-78
2023/03/22 05:22:27;;;;;;;4.37;3.97;;;8.90;99.90;;;;;;474566;250;28286;-78
2023/03/22 05:24:28;;;;;;;7.93;4.57;;;8.90;99.90;;;;;;474565;250;28475;-78
2023/03/22 05:26:29;;;;;;;4.83;4.27;;;8.90;99.90;;;;;;474561;250;28627;-78
2023/03/22 05:28:30;;;;;;;6.63;4.40;;;8.90;99.90;;;;;;474528;250;28209;-78
2023/03/22 05:30:32;;;;;;;9.33;4.37;;;8.90;99.90;;;;;;474576;250;27882;-78
2023/03/22 05:32:36;;;;;;;4.10;3.70;;;9.00;99.90;;;;;;474530;250;28105;-78
2023/03/22 05:34:34;;;;;;;8.80;4.73;;;9.00;99.90;;;;;;474446;250;27947;-77
2023/03/22 05:36:35;;;;;;;6.10;4.00;;;9.00;99.90;;;;;;474566;250;28032;-78
2023/03/22 05:38:37;;;;;;;4.30;3.90;;;8.90;99.90;;;;;;474278;250;28109;-78
2023/03/22 05:40:38;;;;;;;8.17;4.60;;;9.00;99.90;;;;;;474381;250;28007;-77
2023/03/22 05:42:39;;;;;;;6.53;4.07;;;9.00;99.90;;;;;;474044;250;28049;-78
2023/03/22 05:44:40;;;;;;;6.33;4.70;;;9.00;99.90;;;;;;474514;250;27868;-78
2023/03/22 05:46:42;;;;;;;5.93;4.30;;;9.00;99.90;;;;;;474549;250;28135;-78
2023/03/22 05:48:43;;;;;;;5.10;4.47;;;9.00;99.90;;;;;;474447;250;28548;-78
2023/03/22 05:50:44;;;;;;;15.73;5.03;;;9.00;99.90;;;;;;474391;250;27998;-78
2023/03/22 05:52:45;;;;;;;4.27;3.50;;;9.00;99.90;;;;;;474304;250;27940;-78
2023/03/22 05:54:47;;;;;;;6.70;4.60;;;9.10;99.90;;;;;;474338;250;27976;-79
2023/03/22 05:56:48;;;;;;;4.43;3.73;;;9.10;99.90;;;;;;474610;250;28614;-78
2023/03/22 05:58:50;;;;;;;7.10;4.30;;;9.00;99.90;;;;;;474653;250;28476;-77
2023/03/22 06:00:50;;;;;;;5.30;3.70;;;9.00;99.90;;;;;;474791;250;28537;-77
2023/03/22 06:02:55;;;;;;;5.27;4.40;;;9.00;99.90;;;;;;474879;250;28413;-77
2023/03/22 06:04:53;;;;;;;7.40;5.00;;;9.10;99.90;;;;;;474686;250;28561;-78
2023/03/22 06:06:54;;;;;;;4.90;3.87;;;9.10;99.90;;;;;;474686;250;27598;-78
2023/03/22 06:08:55;;;;;;;4.90;3.60;;;9.10;99.90;;;;;;474713;250;28286;-78
2023/03/22 06:10:57;;;;;;;4.67;3.93;;;9.10;99.90;;;;;;474721;250;27992;-78
2023/03/22 06:12:58;;;;;;;6.63;4.30;;;9.20;99.90;;;;;;474691;249;28222;-78
2023/03/22 06:14:59;;;;;;;11.83;4.47;;;9.20;99.90;;;;;;474688;250;28164;-78
2023/03/22 06:17:00;;;;;;;7.27;4.00;;;9.20;99.90;;;;;;474658;250;28090;-78
2023/03/22 06:19:02;;;;;;;7.77;3.87;;;9.30;99.90;;;;;;474691;250;27828;-78
2023/03/22 06:21:03;;;;;;;4.57;4.00;;;9.30;99.90;;;;;;474663;250;27774;-78
2023/03/22 06:23:04;;;;;;;5.07;3.73;;;9.30;99.90;;;;;;474656;250;28053;-78
2023/03/22 06:25:05;;;;;;;3.87;3.47;;;9.30;99.90;;;;;;474717;250;28101;-78
2023/03/22 06:27:07;;;;;;;5.80;3.83;;;9.40;99.90;;;;;;474749;250;27648;-78
2023/03/22 06:29:08;;;;;;;5.10;2.97;;;9.40;99.90;;;;;;474710;250;28046;-78
2023/03/22 06:31:09;;;;;;;6.07;3.70;;;9.50;99.90;;;;;;474702;250;27968;-78
2023/03/22 06:33:10;;;;;;;6.63;3.97;;;9.50;99.90;;;;;;474663;250;27893;-78
2023/03/22 06:35:12;;;;;;;5.50;3.67;;;9.50;99.90;;;;;;474712;250;29290;-78
2023/03/22 06:37:13;;;;;;;5.83;3.63;;;9.60;99.90;;;;;;474743;250;28092;-79
2023/03/22 06:39:14;;;;;;;4.77;3.60;;;9.60;99.90;;;;;;474745;250;28519;-77
2023/03/22 06:41:15;;;;;;;6.50;3.80;;;9.50;99.90;;;;;;474714;250;27877;-78
2023/03/22 06:43:17;;;;;;;5.40;3.67;;;9.60;99.90;;;;;;474749;250;28580;-79
2023/03/22 06:45:18;;;;;;;6.53;3.50;;;9.60;99.90;;;;;;474702;250;28160;-79
2023/03/22 06:47:19;;;;;;;5.17;3.80;;;9.60;99.90;;;;;;474673;250;27870;-78
2023/03/22 06:49:21;;;;;;;4.27;3.33;;;9.70;99.90;;;;;;474688;250;28235;-78
2023/03/22 06:51:22;;;;;;;6.33;3.33;;;9.70;99.90;;;;;;474712;250;28071;-78
2023/03/22 06:53:23;;;;;;;4.20;3.53;;;9.60;99.90;;;;;;474701;250;28012;-79
2023/03/22 06:55:25;;;;;;;7.77;4.13;;;9.70;99.90;;;;;;474673;250;28229;-78
2023/03/22 06:57:25;;;;;;;4.83;3.60;;;9.70;99.90;;;;;;474698;250;28117;-79
2023/03/22 06:59:27;;;;;;;6.17;3.10;;;9.70;99.90;;;;;;474696;250;27976;-78
2023/03/22 07:01:28;;;;;;;5.70;3.43;;;9.80;99.90;;;;;;474642;250;27857;-78
2023/03/22 07:03:29;;;;;;;3.90;3.20;;;9.80;99.90;;;;;;474752;250;28001;-78
2023/03/22 07:05:30;;;;;;;9.83;3.43;;;9.90;99.90;;;;;;474682;250;28105;-78
2023/03/22 07:07:32;;;;;;;7.40;3.73;;;9.90;99.90;;;;;;474708;250;28361;-78
2023/03/22 07:09:33;;;;;;;4.73;3.17;;;9.90;99.90;;;;;;474732;250;28094;-78
2023/03/22 07:11:34;;;;;;;4.50;3.20;;;10.00;99.90;;;;;;474688;250;28012;-79
2023/03/22 07:13:35;;;;;;;4.17;3.13;;;10.10;99.90;;;;;;474672;250;28605;-79
2023/03/22 07:15:37;;;;;;;4.17;3.13;;;10.20;99.90;;;;;;474712;250;28459;-79
2023/03/22 07:17:38;;;;;;;3.50;2.87;;;10.20;99.90;;;;;;474613;250;28744;-79
2023/03/22 07:19:41;;;;;;;5.47;3.40;;;10.30;99.90;;;;;;474708;250;28257;-79
2023/03/22 07:21:40;;;;;;;3.30;3.00;;;10.40;99.90;;;;;;474526;250;28238;-78
2023/03/22 07:23:42;;;;;;;3.80;2.80;;;10.40;99.90;;;;;;474560;250;28139;-79
2023/03/22 07:25:43;;;;;;;4.27;3.53;;;10.50;99.90;;;;;;474544;250;28012;-78
2023/03/22 07:27:44;;;;;;;6.90;3.30;;;10.50;99.90;;;;;;474416;250;28140;-78
2023/03/22 07:29:45;;;;;;;6.80;3.10;;;10.50;99.90;;;;;;474459;250;28330;-78
2023/03/22 07:31:47;;;;;;;7.13;3.60;;;10.50;99.90;;;;;;474484;250;28000;-78
2023/03/22 07:33:48;;;;;;;3.50;2.70;;;10.50;99.90;;;;;;474541;248;28096;-78
2023/03/22 07:35:49;;;;;;;4.40;3.33;;;10.60;99.90;;;;;;474580;250;28179;-78
2023/03/22 07:37:51;;;;;;;3.70;3.00;;;10.80;99.90;;;;;;474564;250;28631;-78
2023/03/22 07:39:52;;;;;;;4.70;2.90;;;10.80;99.90;;;;;;474563;250;28906;-78
2023/03/22 07:41:53;;;;;;;4.07;2.90;;;10.90;99.90;;;;;;474590;250;28694;-78
2023/03/22 07:43:54;;;;;;;7.83;3.30;;;10.90;99.90;;;;;;474588;249;28442;-78
2023/03/22 07:45:55;;;;;;;6.90;3.27;;;11.00;99.90;;;;;;474569;250;28253;-78
2023/03/22 07:47:57;;;;;;;4.53;2.80;;;11.00;99.90;;;;;;474548;250;28269;-78
2023/03/22 07:49:58;;;;;;;4.67;2.73;;;11.10;99.90;;;;;;474579;250;28492;-78
2023/03/22 07:51:59;;;;;;;3.70;2.53;;;11.20;99.90;;;;;;474577;250;28374;-78
2023/03/22 07:54:00;;;;;;;3.50;2.53;;;11.10;99.90;;;;;;474537;250;28516;-79
2023/03/22 07:56:02;;;;;;;6.20;2.77;;;11.10;99.90;;;;;;474568;250;28578;-79
2023/03/22 07:58:03;;;;;;;5.20;3.27;;;11.00;99.90;;;;;;474537;250;28302;-78
2023/03/22 08:00:04;;;;;;;4.07;2.83;;;11.10;99.90;;;;;;474539;250;28305;-78
2023/03/22 08:02:05;;;;;;;2.80;2.50;;;11.30;99.90;;;;;;474534;250;28881;-78
2023/03/22 08:04:07;;;;;;;6.10;2.60;;;11.40;99.90;;;;;;474544;250;29445;-78
2023/03/22 08:06:08;;;;;;;3.33;2.47;;;11.40;99.90;;;;;;474550;250;28684;-78
2023/03/22 08:08:09;;;;;;;6.53;2.20;;;11.50;99.90;;;;;;474539;250;28360;-79
2023/03/22 08:10:10;;;;;;;3.20;2.63;;;11.60;99.90;;;;;;474571;248;28355;-78
2023/03/22 08:12:12;;;;;;;3.13;2.47;;;11.50;99.90;;;;;;474568;250;28352;-78
2023/03/22 08:14:13;;;;;;;4.53;2.77;;;11.40;99.90;;;;;;474521;250;28175;-78
2023/03/22 08:16:16;;;;;;;4.93;2.80;;;;;;;;;;474490;250;28879;-78
2023/03/22 08:18:17;;;;;;;2.50;2.30;;;11.60;99.90;;;;;;474540;250;28062;-79
2023/03/22 08:20:18;;;;;;;2.83;2.60;;;11.70;99.90;;;;;;474408;250;28394;-78
2023/03/22 08:22:23;;;;;;;8.90;2.63;;;11.60;99.90;;;;;;474541;250;28499;-79
2023/03/22 08:24:20;;;;;;;3.00;2.70;;;11.60;99.90;;;;;;474371;250;28848;-78
2023/03/22 08:26:22;;;;;;;3.53;2.20;;;11.50;99.90;;;;;;474520;250;28931;-78
2023/03/22 08:28:23;;;;;;;3.10;2.30;;;11.40;99.90;;;;;;474536;250;28616;-78
2023/03/22 08:30:24;;;;;;;3.57;2.30;;;11.30;99.90;;;;;;474571;250;28333;-78
2023/03/22 08:32:25;;;;;;;4.50;2.67;;;11.40;99.90;;;;;;474512;250;28576;-78
2023/03/22 08:34:27;;;;;;;4.73;2.93;;;11.60;99.90;;;;;;474541;250;28634;-79
2023/03/22 08:36:28;;;;;;;4.83;2.03;;;11.70;99.90;;;;;;474524;250;29488;-78
2023/03/22 08:38:29;;;;;;;5.13;2.90;;;11.70;99.90;;;;;;474480;250;28926;-78
2023/03/22 08:40:30;;;;;;;2.60;2.37;;;11.80;99.90;;;;;;474575;250;28991;-78
2023/03/22 08:42:32;;;;;;;3.80;2.07;;;11.90;99.90;;;;;;474562;250;28310;-78
2023/03/22 08:44:33;;;;;;;3.43;2.10;;;12.00;99.90;;;;;;474529;250;28903;-78
2023/03/22 08:46:35;;;;;;;2.43;2.10;;;;;;;;;;474577;250;28405;-78
2023/03/22 08:48:37;;;;;;;4.50;2.00;;;12.10;99.90;;;;;;474556;250;27375;-78
2023/03/22 08:50:38;;;;;;;5.03;2.03;;;12.20;99.90;;;;;;474567;250;28792;-78
2023/03/22 08:52:39;;;;;;;3.27;2.30;;;12.20;99.90;;;;;;474548;250;28862;-78
2023/03/22 08:54:41;;;;;;;2.70;2.00;;;12.30;99.90;;;;;;474531;250;28330;-78
2023/03/22 08:56:42;;;;;;;2.33;2.13;;;12.50;99.90;;;;;;474502;250;28521;-78
2023/03/22 08:58:45;;;;;;;2.77;2.27;;;12.70;99.90;;;;;;474483;250;28238;-78
2023/03/22 09:00:44;;;;;;;3.03;2.73;;;12.80;99.90;;;;;;474440;250;28516;-78
2023/03/22 09:02:46;;;;;;;3.27;2.20;;;12.90;99.90;;;;;;474549;250;28872;-78
2023/03/22 09:04:47;;;;;;;2.50;2.30;;;12.80;99.90;;;;;;474547;250;28393;-78
2023/03/22 09:06:49;;;;;;;2.87;2.10;;;;;;;;;;474591;250;28513;-78
2023/03/22 09:08:51;;;;;;;3.07;2.00;;;12.50;99.90;;;;;;474588;250;26643;-78
2023/03/22 09:10:52;;;;;;;2.80;1.90;;;12.50;99.90;;;;;;474575;250;28200;-78
2023/03/22 09:12:53;;;;;;;1.90;1.60;;;12.50;99.90;;;;;;474538;250;28579;-78
2023/03/22 09:14:54;;;;;;;1.87;1.73;;;12.60;99.90;;;;;;474497;250;28939;-78
2023/03/22 09:16:55;;;;;;;3.27;2.33;;;12.70;99.90;;;;;;473974;250;28368;-78
2023/03/22 09:18:57;;;;;;;5.87;2.50;;;12.40;99.90;;;;;;474572;250;28386;-78
2023/03/22 09:20:58;;;;;;;4.47;2.20;;;12.40;99.90;;;;;;474560;250;28327;-77
2023/03/22 09:22:59;;;;;;;4.00;2.27;;;12.40;99.90;;;;;;474504;250;29560;-78
2023/03/22 09:25:00;;;;;;;1.97;1.80;;;12.50;99.90;;;;;;474544;250;28870;-78
2023/03/22 09:27:02;;;;;;;2.43;1.90;;;12.60;99.90;;;;;;474569;250;28892;-78
2023/03/22 09:29:03;;;;;;;2.35;1.80;;;12.80;99.90;;;;;;470993;250;36284;-78
2023/03/22 09:31:05;;;;;;;3.40;2.23;;;12.80;99.90;;;;;;474543;250;27507;-78
2023/03/22 09:33:05;;;;;;;2.70;2.00;;;12.80;99.90;;;;;;474500;250;28267;-78
2023/03/22 09:35:07;;;;;;;1.50;1.40;;;12.80;99.90;;;;;;474548;250;28591;-79
2023/03/22 09:37:08;;;;;;;1.87;1.77;;;13.00;99.90;;;;;;474571;250;28447;-78
2023/03/22 09:39:09;;;;;;;2.10;1.90;;;13.10;99.90;;;;;;474525;250;28369;-78
2023/03/22 09:41:10;;;;;;;1.67;1.50;;;13.10;99.90;;;;;;474570;250;28579;-78
2023/03/22 09:43:12;;;;;;;2.20;1.60;;;13.30;99.90;;;;;;474532;250;28377;-78
2023/03/22 09:45:13;;;;;;;2.73;1.67;;;13.60;99.90;;;;;;474502;250;28643;-79
2023/03/22 09:47:14;;;;;;;2.07;1.47;;;13.40;99.90;;;;;;474360;250;28933;-79
2023/03/22 09:49:15;;;;;;;1.73;1.63;;;13.40;99.90;;;;;;474308;248;29524;-78
2023/03/22 09:51:17;;;;;;;1.60;1.50;;;13.50;99.90;;;;;;474232;249;29109;-78
2023/03/22 09:53:18;;;;;;;2.43;1.60;;;13.50;99.90;;;;;;474308;250;28928;-78
2023/03/22 09:55:19;;;;;;;1.90;1.80;;;13.30;99.90;;;;;;474547;250;28588;-78
2023/03/22 09:57:20;;;;;;;1.93;1.70;;;13.20;99.90;;;;;;474563;250;28591;-79
2023/03/22 09:59:22;;;;;;;2.20;1.60;;;13.00;99.90;;;;;;474941;250;28829;-79
2023/03/22 10:01:23;;;;;;;15.90;1.90;;;13.10;99.90;;;;;;474974;250;28302;-78
2023/03/22 10:03:24;;;;;;;3.10;1.60;;;13.10;99.90;;;;;;474855;250;28332;-79
2023/03/22 10:05:25;;;;;;;1.93;1.47;;;13.00;99.90;;;;;;474787;250;28368;-79
2023/03/22 10:07:27;;;;;;;2.60;1.60;;;13.00;99.90;;;;;;474899;250;28317;-79
2023/03/22 10:09:28;;;;;;;2.63;1.60;;;13.20;99.90;;;;;;474890;250;28505;-79
2023/03/22 10:11:29;;;;;;;1.60;1.50;;;13.40;99.90;;;;;;474787;250;29712;-79
2023/03/22 10:13:30;;;;;;;2.70;1.77;;;13.50;99.90;;;;;;474811;250;29329;-78
2023/03/22 10:15:32;;;;;;;3.27;1.67;;;13.50;99.90;;;;;;474805;250;28522;-79
2023/03/22 10:17:33;;;;;;;1.33;1.23;;;13.40;99.90;;;;;;474835;250;28624;-79
2023/03/22 10:19:34;;;;;;;1.60;1.50;;;13.30;99.90;;;;;;474682;250;28583;-79
2023/03/22 10:21:35;;;;;;;1.77;1.63;;;13.20;99.90;;;;;;474833;250;28536;-79
2023/03/22 10:23:37;;;;;;;1.50;1.40;;;13.20;99.90;;;;;;474762;248;28506;-79
2023/03/22 10:25:38;;;;;;;2.70;1.60;;;13.20;99.90;;;;;;474720;248;28642;-79
2023/03/22 10:27:40;;;;;;;3.43;1.87;;;13.20;99.90;;;;;;474777;250;28356;-79
2023/03/22 10:29:40;;;;;;;2.63;1.77;;;13.30;99.90;;;;;;474725;250;28710;-79
2023/03/22 10:31:42;;;;;;;1.87;1.33;;;13.20;99.90;;;;;;474830;250;28455;-79
2023/03/22 10:33:49;;;;;;;3.00;1.60;;;13.20;99.90;;;;;;474798;250;28493;-79
2023/03/22 10:35:44;;;;;;;3.70;1.87;;;13.10;99.90;;;;;;474613;250;28546;-80
2023/03/22 10:37:45;;;;;;;1.40;1.30;;;13.10;99.90;;;;;;474805;250;28934;-79